createdAt,value
2019-02-26T00:00:30.374Z,71.77124
2019-02-26T00:05:54.355Z,70.080566
2019-02-26T00:11:16.780Z,70.837402
2019-02-26T00:16:42.365Z,68.768311
2019-02-26T00:22:04.714Z,69.940186
2019-02-26T00:27:30.426Z,71.179199
2019-02-26T00:32:50.946Z,71.838379
2019-02-26T00:38:15.866Z,74.084473
2019-02-26T00:43:37.529Z,73.699951
2019-02-26T00:49:00.807Z,75.500488
2019-02-26T00:54:24.418Z,74.597168
2019-02-26T00:59:48.155Z,75.323486
2019-02-26T01:05:12.940Z,76.678467
2019-02-26T01:10:34.553Z,72.839355
2019-02-26T01:15:57.761Z,74.255371
2019-02-26T01:21:22.638Z,75.256348
2019-02-26T01:26:44.535Z,78.204346
2019-02-26T01:32:09.462Z,76.715088
2019-02-26T01:37:34.294Z,72.796631
2019-02-26T01:42:55.541Z,75.537109
2019-02-26T01:48:19.056Z,72.973633
2019-02-26T01:53:42.741Z,74.359131
2019-02-26T01:59:06.061Z,74.633789
2019-02-26T02:04:28.807Z,75.152588
2019-02-26T02:09:53.170Z,69.519043
2019-02-26T02:15:18.762Z,71.490479
2019-02-26T02:20:40.111Z,72.143555
2019-02-26T02:26:04.364Z,72.070312
2019-02-26T02:31:27.953Z,73.077393
2019-02-26T02:36:50.219Z,73.284912
2019-02-26T02:42:16.187Z,75.744629
2019-02-26T02:47:38.766Z,75.396729
2019-02-26T02:53:02.007Z,74.633789
2019-02-26T02:58:23.806Z,73.388672
2019-02-26T03:03:47.643Z,74.359131
2019-02-26T03:09:11.553Z,74.841309
2019-02-26T03:14:35.376Z,77.545166
2019-02-26T03:19:58.431Z,75.878906
2019-02-26T03:25:23.717Z,76.507568
2019-02-26T03:30:45.162Z,78.863525
2019-02-26T03:36:08.591Z,78.796387
2019-02-26T03:41:31.605Z,81.365967
2019-02-26T03:46:54.271Z,83.69751
2019-02-26T03:52:17.004Z,84.637451
2019-02-26T03:57:41.795Z,83.69751
2019-02-26T04:03:05.845Z,84.222412
2019-02-26T04:08:30.181Z,84.466553
2019-02-26T04:13:52.089Z,85.717773
2019-02-26T04:19:13.129Z,87.219238
2019-02-26T04:24:37.968Z,87.011719
2019-02-26T04:30:00.399Z,87.634277
2019-02-26T04:35:24.155Z,88.598633
2019-02-26T04:40:46.855Z,84.844971
2019-02-26T04:46:13.582Z,86.242676
2019-02-26T04:51:36.288Z,88.116455
2019-02-26T04:56:58.267Z,87.634277
2019-02-26T05:02:20.988Z,89.306641
2019-02-26T05:07:44.963Z,89.239502
2019-02-26T05:13:09.010Z,89.660645
2019-02-26T05:18:31.680Z,89.868164
2019-02-26T05:23:53.158Z,90.637207
2019-02-26T05:29:16.526Z,90.9729
2019-02-26T05:34:39.808Z,88.513184
2019-02-26T05:40:03.019Z,88.012695
2019-02-26T05:45:29.296Z,88.366699
2019-02-26T05:50:51.270Z,87.554932
2019-02-26T05:56:17.127Z,81.567383
2019-02-26T06:01:38.630Z,81.646729
2019-02-26T06:07:04.567Z,83.660889
2019-02-26T06:12:25.061Z,83.880615
2019-02-26T06:17:50.727Z,88.409424
2019-02-26T06:23:11.537Z,87.908936
2019-02-26T06:28:36.153Z,82.958984
2019-02-26T06:34:01.440Z,82.995605
2019-02-26T06:39:22.569Z,84.039307
2019-02-26T06:44:46.905Z,84.912109
2019-02-26T06:50:10.533Z,84.387207
2019-02-26T06:55:31.829Z,84.106445
2019-02-26T07:00:55.402Z,83.648682
2019-02-26T07:06:19.004Z,84.625244
2019-02-26T07:11:41.007Z,87.62207
2019-02-26T07:17:03.705Z,88.726807
2019-02-26T07:22:26.698Z,89.556885
2019-02-26T07:27:51.128Z,90.081787
2019-02-26T07:33:14.934Z,91.351318
2019-02-26T07:38:46.486Z,90.057373
2019-02-26T07:44:10.021Z,88.73291
2019-02-26T07:49:31.863Z,87.402344
2019-02-26T07:54:54.602Z,84.106445
2019-02-26T08:00:17.264Z,81.402588
2019-02-26T08:05:40.909Z,79.876709
2019-02-26T08:11:06.126Z,78.149414
2019-02-26T08:16:30.261Z,76.531982
2019-02-26T08:21:57.044Z,74.291992
2019-02-26T08:27:17.569Z,72.98584
2019-02-26T08:32:40.208Z,73.156738
2019-02-26T08:38:06.202Z,71.063232
2019-02-26T08:43:26.609Z,71.307373
2019-02-26T08:48:50.740Z,68.701172
2019-02-26T08:54:20.467Z,67.06543
2019-02-26T08:59:35.612Z,64.849854
2019-02-26T09:05:01.132Z,65.710449
2019-02-26T09:10:23.411Z,63.909912
2019-02-26T09:15:45.582Z,63.195801
2019-02-26T09:21:10.119Z,64.276123
2019-02-26T09:26:30.998Z,64.044189
2019-02-26T09:31:53.707Z,63.409424
2019-02-26T09:37:16.419Z,62.945557
2019-02-26T09:42:39.122Z,61.175537
2019-02-26T09:48:02.798Z,62.139893
2019-02-26T09:53:26.393Z,59.973145
2019-02-26T09:58:50.824Z,58.105469
2019-02-26T10:04:11.788Z,56.933594
2019-02-26T10:09:37.366Z,57.385254
2019-02-26T10:15:01.672Z,55.603027
2019-02-26T10:20:23.167Z,53.4729
2019-02-26T10:25:45.414Z,55.987549
2019-02-26T10:31:09.678Z,51.464844
2019-02-26T10:36:34.581Z,53.393555
2019-02-26T10:41:55.514Z,52.227783
2019-02-26T10:47:18.231Z,52.789307
2019-02-26T10:52:41.846Z,48.791504
2019-02-26T10:58:07.818Z,46.66748
2019-02-26T11:03:29.778Z,46.990967
2019-02-26T11:08:53.019Z,47.967529
2019-02-26T11:14:17.230Z,48.126221
2019-02-26T11:19:41.230Z,48.712158
2019-02-26T11:25:01.455Z,45.147705
2019-02-26T11:30:25.997Z,48.632812
2019-02-26T11:35:49.359Z,45.617676
2019-02-26T11:41:10.236Z,47.192383
2019-02-26T11:46:34.352Z,43.670654
2019-02-26T11:51:55.577Z,45.690918
2019-02-26T11:57:19.244Z,43.548584
2019-02-26T12:02:43.513Z,39.569092
2019-02-26T12:08:04.151Z,39.868164
2019-02-26T12:13:31.259Z,38.409424
2019-02-26T12:18:54.514Z,39.239502
2019-02-26T12:24:18.185Z,36.120605
2019-02-26T12:29:43.555Z,33.190918
2019-02-26T12:35:05.867Z,32.214355
2019-02-26T12:40:29.155Z,31.274414
2019-02-26T12:45:55.912Z,34.002686
2019-02-26T12:51:16.435Z,32.409668
2019-02-26T12:56:40.044Z,31.616211
2019-02-26T13:02:05.421Z,30.566406
2019-02-26T13:07:27.399Z,26.208496
2019-02-26T13:12:54.825Z,23.309326
2019-02-26T13:18:14.572Z,26.092529
2019-02-26T13:23:37.328Z,27.105713
2019-02-26T13:29:00.999Z,24.707031
2019-02-26T13:34:23.578Z,28.851318
2019-02-26T13:39:46.280Z,28.253174
2019-02-26T13:45:08.968Z,30.786133
2019-02-26T13:50:31.523Z,30.639648
2019-02-26T13:55:55.132Z,31.707764
2019-02-26T14:01:17.691Z,31.695557
2019-02-26T14:06:40.325Z,30.999756
2019-02-26T14:12:03.945Z,30.682373
2019-02-26T14:17:26.641Z,32.806396
2019-02-26T14:22:49.281Z,27.368164
2019-02-26T14:28:12.027Z,29.400635
2019-02-26T14:33:34.676Z,30.914307
2019-02-26T14:38:57.974Z,28.68042
2019-02-26T14:44:20.665Z,26.861572
2019-02-26T14:49:43.290Z,26.672363
2019-02-26T14:55:05.964Z,27.868652
2019-02-26T15:00:30.587Z,24.945068
2019-02-26T15:05:53.267Z,25.134277
2019-02-26T15:11:15.944Z,24.932861
2019-02-26T15:16:38.658Z,21.09375
2019-02-26T15:22:01.328Z,21.258545
2019-02-26T15:27:24.010Z,21.929932
2019-02-26T15:32:48.411Z,23.773193
2019-02-26T15:38:11.101Z,23.193359
2019-02-26T15:43:33.767Z,26.330566
2019-02-26T15:48:56.924Z,22.320557
2019-02-26T15:54:20.626Z,24.169922
2019-02-26T15:59:43.401Z,22.406006
2019-02-26T16:05:07.027Z,32.580566
2019-02-26T16:10:29.727Z,36.151123
2019-02-26T16:15:53.401Z,31.396484
2019-02-26T16:21:18.330Z,29.278564
2019-02-26T16:26:40.956Z,27.520752
2019-02-26T16:32:02.629Z,32.202148
2019-02-26T16:37:24.218Z,33.789062
2019-02-26T16:42:46.862Z,41.088867
2019-02-26T16:48:09.658Z,38.903809
2019-02-26T16:53:34.172Z,46.484375
2019-02-26T16:58:55.706Z,45.324707
2019-02-26T17:04:18.579Z,47.924805
2019-02-26T17:09:41.383Z,52.313232
2019-02-26T17:15:04.191Z,50.006104
2019-02-26T17:20:26.821Z,52.46582
2019-02-26T17:25:49.560Z,55.615234
2019-02-26T17:31:12.213Z,55.511475
2019-02-26T17:36:36.885Z,54.919434
2019-02-26T17:41:59.605Z,56.079102
2019-02-26T17:47:22.447Z,56.92749
2019-02-26T17:52:45.142Z,56.848145
2019-02-26T17:58:10.521Z,58.416748
2019-02-26T18:03:30.589Z,56.719971
2019-02-26T18:08:56.142Z,58.47168
2019-02-26T18:14:16.193Z,58.087158
2019-02-26T18:19:39.024Z,59.790039
2019-02-26T18:25:02.695Z,61.700439
2019-02-26T18:30:25.704Z,63.793945
2019-02-26T18:35:48.617Z,62.792969
2019-02-26T18:41:11.385Z,63.336182
2019-02-26T18:46:34.226Z,63.031006
2019-02-26T18:51:57.204Z,63.366699
2019-02-26T18:57:20.051Z,64.508057
2019-02-26T19:02:42.753Z,64.94751
2019-02-26T19:08:06.472Z,64.84375
2019-02-26T19:13:33.234Z,65.496826
2019-02-26T19:18:54.489Z,64.562988
2019-02-26T19:24:18.030Z,64.978027
2019-02-26T19:29:40.904Z,65.319824
2019-02-26T19:35:12.010Z,65.527344
2019-02-26T19:40:27.639Z,65.216064
2019-02-26T19:45:50.537Z,64.074707
2019-02-26T19:51:13.405Z,63.458252
2019-02-26T19:56:37.142Z,64.801025
2019-02-26T20:02:00.080Z,62.420654
2019-02-26T20:07:22.941Z,62.078857
2019-02-26T20:12:46.748Z,61.669922
2019-02-26T20:18:19.998Z,61.950684
2019-02-26T20:23:34.043Z,60.992432
2019-02-26T20:28:57.727Z,55.511475
2019-02-26T20:34:21.414Z,54.351807
2019-02-26T20:39:44.265Z,55.230713
2019-02-26T20:45:07.067Z,57.165527
2019-02-26T20:50:30.777Z,54.736328
2019-02-26T20:55:57.388Z,56.70166
2019-02-26T21:01:16.135Z,58.691406
2019-02-26T21:06:50.391Z,59.0271
2019-02-26T21:12:10.741Z,57.788086
2019-02-26T21:17:32.804Z,57.91626
2019-02-26T21:22:55.607Z,57.269287
2019-02-26T21:28:21.793Z,57.476807
2019-02-26T21:33:44.847Z,55.511475
2019-02-26T21:39:10.785Z,57.476807
2019-02-26T21:44:30.262Z,58.81958
2019-02-26T21:49:52.950Z,58.843994
2019-02-26T21:55:26.704Z,59.051514
2019-02-26T22:00:50.422Z,58.978271
2019-02-26T22:06:13.089Z,59.521484
2019-02-26T22:11:35.756Z,59.655762
2019-02-26T22:16:58.445Z,62.060547
2019-02-26T22:22:25.905Z,62.683105
2019-02-26T22:27:44.774Z,60.534668
2019-02-26T22:33:07.900Z,61.260986
2019-02-26T22:38:30.194Z,62.8479
2019-02-26T22:43:53.509Z,61.413574
2019-02-26T22:49:17.751Z,62.817383
2019-02-26T22:54:40.703Z,63.916016
2019-02-26T23:00:02.310Z,62.982178
2019-02-26T23:05:27.043Z,64.874268
2019-02-26T23:10:51.291Z,63.659668
2019-02-26T23:16:17.919Z,63.189697
2019-02-26T23:21:36.230Z,59.606934
2019-02-26T23:26:59.042Z,56.622314
2019-02-26T23:32:21.661Z,56.311035
2019-02-26T23:37:44.310Z,57.684326
2019-02-26T23:43:06.980Z,60.461426
2019-02-26T23:48:29.814Z,65.008545
2019-02-26T23:53:52.476Z,64.282227
2019-02-26T23:59:15.093Z,66.28418
